sensor_id;sensor_type;location;lat;lon;timestamp;pressure;altitude;pressure_sealevel;temperature;humidity
76201;BME280;64981;52.930;9.266;2024-03-25T00:00:42;99931.88;;;5.91;79.87
76201;BME280;64981;52.930;9.266;2024-03-25T00:03:08;99926.78;;;5.90;79.46
76201;BME280;64981;52.930;9.266;2024-03-25T00:05:34;99929.91;;;5.93;79.35
76201;BME280;64981;52.930;9.266;2024-03-25T00:07:59;99933.63;;;5.83;78.80
76201;BME280;64981;52.930;9.266;2024-03-25T00:10:25;99929.91;;;5.93;77.96
76201;BME280;64981;52.930;9.266;2024-03-25T00:12:51;99942.44;;;5.82;78.77
76201;BME280;64981;52.930;9.266;2024-03-25T00:15:21;99946.25;;;5.87;78.25
76201;BME280;64981;52.930;9.266;2024-03-25T00:17:47;99938.50;;;5.60;78.73
76201;BME280;64981;52.930;9.266;2024-03-25T00:20:13;99951.66;;;5.68;78.93
76201;BME280;64981;52.930;9.266;2024-03-25T00:22:40;99951.75;;;5.76;78.70
76201;BME280;64981;52.930;9.266;2024-03-25T00:25:06;99962.13;;;5.68;78.67
76201;BME280;64981;52.930;9.266;2024-03-25T00:27:32;99960.69;;;5.74;78.32
76201;BME280;64981;52.930;9.266;2024-03-25T00:29:58;99961.59;;;5.65;78.30
76201;BME280;64981;52.930;9.266;2024-03-25T00:32:24;99961.31;;;5.68;78.27
76201;BME280;64981;52.930;9.266;2024-03-25T00:34:50;99969.03;;;5.52;78.55
76201;BME280;64981;52.930;9.266;2024-03-25T00:37:15;99971.41;;;5.63;78.48
76201;BME280;64981;52.930;9.266;2024-03-25T00:39:41;99961.84;;;5.54;78.40
76201;BME280;64981;52.930;9.266;2024-03-25T00:42:07;99963.41;;;5.64;78.02
76201;BME280;64981;52.930;9.266;2024-03-25T00:44:32;99972.31;;;5.71;78.20
76201;BME280;64981;52.930;9.266;2024-03-25T00:46:58;99985.88;;;5.67;78.35
76201;BME280;64981;52.930;9.266;2024-03-25T00:49:24;99976.13;;;5.59;78.68
76201;BME280;64981;52.930;9.266;2024-03-25T00:51:50;99987.19;;;5.71;78.81
76201;BME280;64981;52.930;9.266;2024-03-25T00:54:15;99986.25;;;5.72;78.78
76201;BME280;64981;52.930;9.266;2024-03-25T00:56:41;99988.50;;;5.67;78.77
76201;BME280;64981;52.930;9.266;2024-03-25T00:59:06;99996.50;;;5.65;78.92
76201;BME280;64981;52.930;9.266;2024-03-25T01:01:33;99991.94;;;5.67;79.47
76201;BME280;64981;52.930;9.266;2024-03-25T01:04:01;99993.72;;;5.67;79.61
76201;BME280;64981;52.930;9.266;2024-03-25T01:06:27;99997.25;;;5.75;79.96
76201;BME280;64981;52.930;9.266;2024-03-25T01:08:53;99995.38;;;5.85;79.13
76201;BME280;64981;52.930;9.266;2024-03-25T01:11:18;99992.25;;;5.82;79.89
76201;BME280;64981;52.930;9.266;2024-03-25T01:13:44;99990.34;;;5.74;80.62
76201;BME280;64981;52.930;9.266;2024-03-25T01:16:10;99992.31;;;5.72;80.83
76201;BME280;64981;52.930;9.266;2024-03-25T01:18:36;100001.13;;;5.71;80.79
76201;BME280;64981;52.930;9.266;2024-03-25T01:21:02;100002.63;;;5.74;80.47
76201;BME280;64981;52.930;9.266;2024-03-25T01:23:29;100003.44;;;5.74;80.39
76201;BME280;64981;52.930;9.266;2024-03-25T01:25:54;100002.63;;;5.56;80.94
76201;BME280;64981;52.930;9.266;2024-03-25T01:28:20;100004.34;;;5.65;80.20
76201;BME280;64981;52.930;9.266;2024-03-25T01:30:45;99999.09;;;5.65;80.53
76201;BME280;64981;52.930;9.266;2024-03-25T01:33:11;100004.66;;;5.62;80.38
76201;BME280;64981;52.930;9.266;2024-03-25T01:35:36;100002.63;;;5.74;79.71
76201;BME280;64981;52.930;9.266;2024-03-25T01:38:02;99993.13;;;5.73;79.69
76201;BME280;64981;52.930;9.266;2024-03-25T01:40:29;99999.34;;;5.72;79.22
76201;BME280;64981;52.930;9.266;2024-03-25T01:42:57;100013.56;;;5.69;79.31
76201;BME280;64981;52.930;9.266;2024-03-25T01:45:25;100005.00;;;5.49;79.42
76201;BME280;64981;52.930;9.266;2024-03-25T01:47:52;100013.66;;;5.32;79.96
76201;BME280;64981;52.930;9.266;2024-03-25T01:50:18;100010.47;;;5.38;79.65
76201;BME280;64981;52.930;9.266;2024-03-25T01:52:44;100018.25;;;5.48;79.51
76201;BME280;64981;52.930;9.266;2024-03-25T01:55:21;100023.88;;;5.53;79.62
76201;BME280;64981;52.930;9.266;2024-03-25T01:57:47;100028.63;;;5.40;79.61
76201;BME280;64981;52.930;9.266;2024-03-25T02:00:15;100037.13;;;5.52;79.14
76201;BME280;64981;52.930;9.266;2024-03-25T02:02:42;100034.75;;;5.31;80.08
76201;BME280;64981;52.930;9.266;2024-03-25T02:05:10;100045.97;;;5.23;79.94
76201;BME280;64981;52.930;9.266;2024-03-25T02:07:36;100043.50;;;5.39;79.93
76201;BME280;64981;52.930;9.266;2024-03-25T02:10:03;100045.53;;;5.45;80.12
76201;BME280;64981;52.930;9.266;2024-03-25T02:12:31;100044.03;;;5.43;80.69
76201;BME280;64981;52.930;9.266;2024-03-25T02:14:58;100056.03;;;5.45;81.37
76201;BME280;64981;52.930;9.266;2024-03-25T02:17:24;100047.53;;;5.61;80.57
76201;BME280;64981;52.930;9.266;2024-03-25T02:19:50;100054.47;;;5.53;81.16
76201;BME280;64981;52.930;9.266;2024-03-25T02:22:16;100056.91;;;5.64;80.76
76201;BME280;64981;52.930;9.266;2024-03-25T02:24:45;100056.06;;;5.63;80.87
76201;BME280;64981;52.930;9.266;2024-03-25T02:27:12;100063.47;;;5.68;80.45
76201;BME280;64981;52.930;9.266;2024-03-25T02:29:41;100063.53;;;5.85;79.61
76201;BME280;64981;52.930;9.266;2024-03-25T02:32:07;100056.16;;;5.71;80.19
76201;BME280;64981;52.930;9.266;2024-03-25T02:34:37;100053.16;;;5.66;79.75
76201;BME280;64981;52.930;9.266;2024-03-25T02:37:04;100058.94;;;5.70;80.09
76201;BME280;64981;52.930;9.266;2024-03-25T02:39:31;100056.97;;;5.72;79.88
76201;BME280;64981;52.930;9.266;2024-03-25T02:41:58;100058.78;;;5.71;79.06
76201;BME280;64981;52.930;9.266;2024-03-25T02:44:23;100052.91;;;5.60;79.76
76201;BME280;64981;52.930;9.266;2024-03-25T02:46:51;100055.78;;;5.66;78.84
76201;BME280;64981;52.930;9.266;2024-03-25T02:49:17;100046.13;;;5.67;78.86
76201;BME280;64981;52.930;9.266;2024-03-25T02:51:43;100063.25;;;5.61;78.82
76201;BME280;64981;52.930;9.266;2024-03-25T02:54:09;100067.50;;;5.62;78.69
76201;BME280;64981;52.930;9.266;2024-03-25T02:56:35;100065.78;;;5.53;78.72
76201;BME280;64981;52.930;9.266;2024-03-25T02:59:01;100069.66;;;5.49;78.35
76201;BME280;64981;52.930;9.266;2024-03-25T03:01:27;100081.75;;;5.32;79.07
76201;BME280;64981;52.930;9.266;2024-03-25T03:03:52;100074.47;;;5.26;79.18
76201;BME280;64981;52.930;9.266;2024-03-25T03:06:18;100096.75;;;5.30;79.86
76201;BME280;64981;52.930;9.266;2024-03-25T03:08:45;100094.59;;;5.26;79.74
76201;BME280;64981;52.930;9.266;2024-03-25T03:11:10;100097.50;;;5.23;80.06
76201;BME280;64981;52.930;9.266;2024-03-25T03:13:36;100089.41;;;5.07;80.36
76201;BME280;64981;52.930;9.266;2024-03-25T03:16:02;100095.44;;;5.17;80.26
76201;BME280;64981;52.930;9.266;2024-03-25T03:18:28;100101.41;;;5.00;80.74
76201;BME280;64981;52.930;9.266;2024-03-25T03:20:53;100107.72;;;5.07;80.63
76201;BME280;64981;52.930;9.266;2024-03-25T03:23:22;100105.19;;;5.24;79.79
76201;BME280;64981;52.930;9.266;2024-03-25T03:25:47;100111.94;;;5.17;79.83
76201;BME280;64981;52.930;9.266;2024-03-25T03:28:13;100110.97;;;5.28;79.78
76201;BME280;64981;52.930;9.266;2024-03-25T03:30:40;100114.41;;;5.28;79.80
76201;BME280;64981;52.930;9.266;2024-03-25T03:33:06;100114.94;;;5.32;79.79
76201;BME280;64981;52.930;9.266;2024-03-25T03:35:33;100108.28;;;5.10;80.36
76201;BME280;64981;52.930;9.266;2024-03-25T03:37:59;100125.59;;;5.21;80.60
76201;BME280;64981;52.930;9.266;2024-03-25T03:40:24;100133.03;;;5.25;80.90
76201;BME280;64981;52.930;9.266;2024-03-25T03:42:50;100130.94;;;5.29;80.99
76201;BME280;64981;52.930;9.266;2024-03-25T03:45:15;100136.03;;;5.30;81.03
76201;BME280;64981;52.930;9.266;2024-03-25T03:47:41;100126.97;;;5.52;79.98
76201;BME280;64981;52.930;9.266;2024-03-25T03:50:07;100134.16;;;5.50;80.46
76201;BME280;64981;52.930;9.266;2024-03-25T03:52:33;100136.69;;;5.42;80.91
76201;BME280;64981;52.930;9.266;2024-03-25T03:54:59;100128.94;;;5.50;80.56
76201;BME280;64981;52.930;9.266;2024-03-25T03:57:25;100140.78;;;5.54;80.30
76201;BME280;64981;52.930;9.266;2024-03-25T03:59:52;100135.84;;;5.51;80.55
76201;BME280;64981;52.930;9.266;2024-03-25T04:02:17;100135.66;;;5.53;80.49
76201;BME280;64981;52.930;9.266;2024-03-25T04:04:43;100144.44;;;5.61;80.46
76201;BME280;64981;52.930;9.266;2024-03-25T04:07:09;100158.69;;;5.49;80.66
76201;BME280;64981;52.930;9.266;2024-03-25T04:09:35;100149.22;;;5.48;80.85
76201;BME280;64981;52.930;9.266;2024-03-25T04:12:01;100140.00;;;5.44;81.01
76201;BME280;64981;52.930;9.266;2024-03-25T04:14:26;100144.09;;;5.46;81.01
76201;BME280;64981;52.930;9.266;2024-03-25T04:16:52;100139.50;;;5.58;80.54
76201;BME280;64981;52.930;9.266;2024-03-25T04:19:23;100137.88;;;5.57;80.40
76201;BME280;64981;52.930;9.266;2024-03-25T04:21:49;100134.72;;;5.54;80.23
76201;BME280;64981;52.930;9.266;2024-03-25T04:24:14;100139.50;;;5.58;79.78
76201;BME280;64981;52.930;9.266;2024-03-25T04:26:40;100136.91;;;5.48;79.85
76201;BME280;64981;52.930;9.266;2024-03-25T04:29:06;100146.88;;;5.45;80.73
76201;BME280;64981;52.930;9.266;2024-03-25T04:31:31;100140.16;;;5.33;80.58
76201;BME280;64981;52.930;9.266;2024-03-25T04:33:58;100157.41;;;5.35;80.96
76201;BME280;64981;52.930;9.266;2024-03-25T04:36:23;100165.91;;;5.37;81.09
76201;BME280;64981;52.930;9.266;2024-03-25T04:38:49;100164.41;;;5.35;81.23
76201;BME280;64981;52.930;9.266;2024-03-25T04:41:15;100165.34;;;5.43;81.32
76201;BME280;64981;52.930;9.266;2024-03-25T04:43:40;100168.63;;;5.45;81.55
76201;BME280;64981;52.930;9.266;2024-03-25T04:46:06;100167.09;;;5.53;81.01
76201;BME280;64981;52.930;9.266;2024-03-25T04:48:32;100166.28;;;5.52;81.55
76201;BME280;64981;52.930;9.266;2024-03-25T04:50:57;100178.81;;;5.48;81.75
76201;BME280;64981;52.930;9.266;2024-03-25T04:53:23;100175.75;;;5.63;81.39
76201;BME280;64981;52.930;9.266;2024-03-25T04:55:48;100175.22;;;5.59;81.53
76201;BME280;64981;52.930;9.266;2024-03-25T04:58:14;100177.16;;;5.57;81.85
76201;BME280;64981;52.930;9.266;2024-03-25T05:00:39;100186.38;;;5.61;81.77
76201;BME280;64981;52.930;9.266;2024-03-25T05:03:05;100170.53;;;5.63;82.13
76201;BME280;64981;52.930;9.266;2024-03-25T05:05:31;100184.56;;;5.62;82.32
76201;BME280;64981;52.930;9.266;2024-03-25T05:07:56;100181.81;;;5.63;82.42
76201;BME280;64981;52.930;9.266;2024-03-25T05:10:22;100187.44;;;5.68;81.83
76201;BME280;64981;52.930;9.266;2024-03-25T05:12:47;100186.94;;;5.55;82.47
76201;BME280;64981;52.930;9.266;2024-03-25T05:15:15;100191.22;;;5.56;82.12
76201;BME280;64981;52.930;9.266;2024-03-25T05:17:41;100197.38;;;5.65;81.82
76201;BME280;64981;52.930;9.266;2024-03-25T05:20:07;100198.22;;;5.65;81.78
76201;BME280;64981;52.930;9.266;2024-03-25T05:22:32;100189.53;;;5.65;81.84
76201;BME280;64981;52.930;9.266;2024-03-25T05:24:58;100191.19;;;5.66;81.78
76201;BME280;64981;52.930;9.266;2024-03-25T05:27:23;100205.63;;;5.79;81.34
76201;BME280;64981;52.930;9.266;2024-03-25T05:29:49;100196.22;;;5.77;81.19
76201;BME280;64981;52.930;9.266;2024-03-25T05:32:15;100207.16;;;5.72;81.54
76201;BME280;64981;52.930;9.266;2024-03-25T05:34:43;100214.34;;;5.70;81.23
76201;BME280;64981;52.930;9.266;2024-03-25T05:37:08;100205.13;;;5.66;81.16
76201;BME280;64981;52.930;9.266;2024-03-25T05:39:34;100207.44;;;5.69;81.53
76201;BME280;64981;52.930;9.266;2024-03-25T05:41:59;100213.78;;;5.76;81.02
76201;BME280;64981;52.930;9.266;2024-03-25T05:44:25;100227.84;;;5.75;81.10
76201;BME280;64981;52.930;9.266;2024-03-25T05:46:50;100211.81;;;5.78;80.81
76201;BME280;64981;52.930;9.266;2024-03-25T05:49:16;100224.94;;;5.78;80.90
76201;BME280;64981;52.930;9.266;2024-03-25T05:51:41;100224.63;;;5.81;80.79
76201;BME280;64981;52.930;9.266;2024-03-25T05:54:07;100225.84;;;5.87;80.76
76201;BME280;64981;52.930;9.266;2024-03-25T05:56:33;100225.28;;;5.93;80.48
76201;BME280;64981;52.930;9.266;2024-03-25T05:59:00;100222.81;;;5.91;80.64
76201;BME280;64981;52.930;9.266;2024-03-25T06:01:26;100211.63;;;5.89;79.79
76201;BME280;64981;52.930;9.266;2024-03-25T06:03:53;100213.91;;;6.02;79.69
76201;BME280;64981;52.930;9.266;2024-03-25T06:06:19;100211.44;;;6.00;79.62
76201;BME280;64981;52.930;9.266;2024-03-25T06:08:45;100228.09;;;6.09;79.67
76201;BME280;64981;52.930;9.266;2024-03-25T06:11:10;100218.44;;;6.10;79.31
76201;BME280;64981;52.930;9.266;2024-03-25T06:13:36;100226.78;;;6.23;78.68
76201;BME280;64981;52.930;9.266;2024-03-25T06:16:02;100221.69;;;6.21;78.58
76201;BME280;64981;52.930;9.266;2024-03-25T06:18:27;100220.84;;;6.21;78.21
76201;BME280;64981;52.930;9.266;2024-03-25T06:20:53;100232.56;;;6.26;77.52
76201;BME280;64981;52.930;9.266;2024-03-25T06:23:23;100223.47;;;6.21;77.63
76201;BME280;64981;52.930;9.266;2024-03-25T06:25:50;100232.22;;;6.39;76.87
76201;BME280;64981;52.930;9.266;2024-03-25T06:28:16;100249.34;;;6.33;76.97
76201;BME280;64981;52.930;9.266;2024-03-25T06:30:41;100248.91;;;6.38;76.94
76201;BME280;64981;52.930;9.266;2024-03-25T06:33:17;100259.34;;;6.47;76.51
76201;BME280;64981;52.930;9.266;2024-03-25T06:35:52;100248.69;;;6.49;76.36
76201;BME280;64981;52.930;9.266;2024-03-25T06:38:18;100271.34;;;6.50;76.64
76201;BME280;64981;52.930;9.266;2024-03-25T06:40:45;100257.88;;;6.45;76.31
76201;BME280;64981;52.930;9.266;2024-03-25T06:43:11;100272.03;;;6.52;76.50
76201;BME280;64981;52.930;9.266;2024-03-25T06:45:37;100261.75;;;6.58;76.25
76201;BME280;64981;52.930;9.266;2024-03-25T06:48:02;100262.75;;;6.57;76.32
76201;BME280;64981;52.930;9.266;2024-03-25T06:50:28;100275.34;;;6.54;76.41
76201;BME280;64981;52.930;9.266;2024-03-25T06:52:55;100280.97;;;6.59;76.35
76201;BME280;64981;52.930;9.266;2024-03-25T06:55:20;100271.00;;;6.63;76.05
76201;BME280;64981;52.930;9.266;2024-03-25T06:57:49;100268.84;;;6.76;75.32
76201;BME280;64981;52.930;9.266;2024-03-25T07:00:14;100277.44;;;6.68;75.50
76201;BME280;64981;52.930;9.266;2024-03-25T07:02:40;100285.72;;;6.73;75.65
76201;BME280;64981;52.930;9.266;2024-03-25T07:05:06;100279.75;;;6.81;74.84
76201;BME280;64981;52.930;9.266;2024-03-25T07:07:32;100288.31;;;7.00;74.43
76201;BME280;64981;52.930;9.266;2024-03-25T07:10:00;100293.56;;;7.00;74.44
76201;BME280;64981;52.930;9.266;2024-03-25T07:12:25;100281.63;;;7.06;73.57
76201;BME280;64981;52.930;9.266;2024-03-25T07:14:51;100283.13;;;7.08;73.62
76201;BME280;64981;52.930;9.266;2024-03-25T07:17:16;100286.75;;;7.07;73.26
76201;BME280;64981;52.930;9.266;2024-03-25T07:19:42;100294.75;;;7.06;73.22
76201;BME280;64981;52.930;9.266;2024-03-25T07:22:09;100282.25;;;7.18;72.99
76201;BME280;64981;52.930;9.266;2024-03-25T07:24:34;100292.44;;;7.21;73.19
76201;BME280;64981;52.930;9.266;2024-03-25T07:27:00;100286.44;;;7.10;73.45
76201;BME280;64981;52.930;9.266;2024-03-25T07:29:25;100282.38;;;7.16;72.90
76201;BME280;64981;52.930;9.266;2024-03-25T07:31:52;100288.81;;;7.22;72.85
76201;BME280;64981;52.930;9.266;2024-03-25T07:34:18;100290.22;;;7.34;73.12
76201;BME280;64981;52.930;9.266;2024-03-25T07:36:44;100288.44;;;7.34;71.88
76201;BME280;64981;52.930;9.266;2024-03-25T07:39:09;100291.94;;;7.43;72.10
76201;BME280;64981;52.930;9.266;2024-03-25T07:41:37;100296.97;;;7.54;71.11
76201;BME280;64981;52.930;9.266;2024-03-25T07:44:02;100294.34;;;7.54;71.33
76201;BME280;64981;52.930;9.266;2024-03-25T07:46:30;100297.38;;;7.67;70.60
76201;BME280;64981;52.930;9.266;2024-03-25T07:48:56;100294.44;;;7.70;71.43
76201;BME280;64981;52.930;9.266;2024-03-25T07:51:22;100306.69;;;7.87;70.36
76201;BME280;64981;52.930;9.266;2024-03-25T07:53:47;100317.22;;;7.87;69.41
76201;BME280;64981;52.930;9.266;2024-03-25T07:56:15;100305.28;;;7.93;70.01
76201;BME280;64981;52.930;9.266;2024-03-25T07:58:41;100312.69;;;7.97;69.02
76201;BME280;64981;52.930;9.266;2024-03-25T08:01:07;100322.13;;;8.08;68.57
76201;BME280;64981;52.930;9.266;2024-03-25T08:03:32;100320.63;;;8.05;69.08
76201;BME280;64981;52.930;9.266;2024-03-25T08:05:59;100320.44;;;7.99;68.74
76201;BME280;64981;52.930;9.266;2024-03-25T08:08:24;100325.19;;;8.29;67.94
76201;BME280;64981;52.930;9.266;2024-03-25T08:10:50;100320.34;;;8.16;68.18
76201;BME280;64981;52.930;9.266;2024-03-25T08:13:18;100323.06;;;8.33;66.98
76201;BME280;64981;52.930;9.266;2024-03-25T08:15:45;100329.69;;;8.45;66.66
76201;BME280;64981;52.930;9.266;2024-03-25T08:18:11;100324.50;;;8.61;66.26
76201;BME280;64981;52.930;9.266;2024-03-25T08:20:38;100323.22;;;8.65;66.02
76201;BME280;64981;52.930;9.266;2024-03-25T08:23:04;100336.97;;;8.93;65.29
76201;BME280;64981;52.930;9.266;2024-03-25T08:25:31;100344.06;;;9.00;65.86
76201;BME280;64981;52.930;9.266;2024-03-25T08:27:57;100340.81;;;9.14;65.19
76201;BME280;64981;52.930;9.266;2024-03-25T08:30:24;100336.53;;;9.30;63.82
76201;BME280;64981;52.930;9.266;2024-03-25T08:32:50;100344.78;;;9.43;62.96
76201;BME280;64981;52.930;9.266;2024-03-25T08:35:18;100342.13;;;9.67;62.77
76201;BME280;64981;52.930;9.266;2024-03-25T08:37:43;100339.16;;;9.78;61.55
76201;BME280;64981;52.930;9.266;2024-03-25T08:40:09;100334.19;;;9.99;59.32
76201;BME280;64981;52.930;9.266;2024-03-25T08:42:35;100330.88;;;9.97;59.67
76201;BME280;64981;52.930;9.266;2024-03-25T08:45:01;100332.16;;;10.25;58.46
76201;BME280;64981;52.930;9.266;2024-03-25T08:47:27;100342.13;;;10.85;57.65
76201;BME280;64981;52.930;9.266;2024-03-25T08:49:52;100327.91;;;11.17;55.73
76201;BME280;64981;52.930;9.266;2024-03-25T08:52:18;100334.94;;;11.47;54.81
76201;BME280;64981;52.930;9.266;2024-03-25T08:54:44;100330.84;;;11.45;53.91
76201;BME280;64981;52.930;9.266;2024-03-25T08:57:09;100322.03;;;11.52;52.37
76201;BME280;64981;52.930;9.266;2024-03-25T08:59:35;100325.09;;;11.64;52.83
76201;BME280;64981;52.930;9.266;2024-03-25T09:02:01;100327.13;;;11.76;52.66
76201;BME280;64981;52.930;9.266;2024-03-25T09:04:27;100327.47;;;11.59;53.07
76201;BME280;64981;52.930;9.266;2024-03-25T09:06:53;100328.41;;;11.80;51.61
76201;BME280;64981;52.930;9.266;2024-03-25T09:09:18;100329.25;;;11.96;52.38
76201;BME280;64981;52.930;9.266;2024-03-25T09:11:54;100328.00;;;12.06;51.83
76201;BME280;64981;52.930;9.266;2024-03-25T09:14:20;100336.56;;;11.94;51.55
76201;BME280;64981;52.930;9.266;2024-03-25T09:16:46;100339.53;;;11.76;52.18
76201;BME280;64981;52.930;9.266;2024-03-25T09:19:12;100343.53;;;11.72;51.84
76201;BME280;64981;52.930;9.266;2024-03-25T09:21:38;100344.00;;;11.75;51.79
76201;BME280;64981;52.930;9.266;2024-03-25T09:24:04;100346.38;;;11.85;50.96
76201;BME280;64981;52.930;9.266;2024-03-25T09:26:30;100344.53;;;11.48;52.04
76201;BME280;64981;52.930;9.266;2024-03-25T09:28:55;100353.81;;;11.21;53.62
76201;BME280;64981;52.930;9.266;2024-03-25T09:31:21;100360.75;;;10.92;53.75
76201;BME280;64981;52.930;9.266;2024-03-25T09:33:47;100350.53;;;10.58;54.56
76201;BME280;64981;52.930;9.266;2024-03-25T09:36:13;100358.25;;;10.67;55.22
76201;BME280;64981;52.930;9.266;2024-03-25T09:38:39;100343.44;;;10.58;56.00
76201;BME280;64981;52.930;9.266;2024-03-25T09:41:08;100360.38;;;10.25;56.76
76201;BME280;64981;52.930;9.266;2024-03-25T09:43:43;100360.50;;;10.15;56.06
76201;BME280;64981;52.930;9.266;2024-03-25T09:46:11;100350.97;;;10.06;57.68
76201;BME280;64981;52.930;9.266;2024-03-25T09:48:37;100355.41;;;10.30;56.57
76201;BME280;64981;52.930;9.266;2024-03-25T09:51:05;100360.38;;;10.17;56.56
76201;BME280;64981;52.930;9.266;2024-03-25T09:53:31;100362.56;;;9.73;57.56
76201;BME280;64981;52.930;9.266;2024-03-25T09:55:57;100368.94;;;10.03;56.97
76201;BME280;64981;52.930;9.266;2024-03-25T09:58:25;100360.88;;;10.04;56.85
76201;BME280;64981;52.930;9.266;2024-03-25T10:00:51;100368.44;;;10.15;56.92
76201;BME280;64981;52.930;9.266;2024-03-25T10:03:17;100363.50;;;10.37;56.87
76201;BME280;64981;52.930;9.266;2024-03-25T10:05:43;100366.53;;;10.56;56.50
76201;BME280;64981;52.930;9.266;2024-03-25T10:08:08;100361.38;;;10.63;56.46
76201;BME280;64981;52.930;9.266;2024-03-25T10:10:35;100363.94;;;10.48;56.97
76201;BME280;64981;52.930;9.266;2024-03-25T10:13:03;100377.22;;;10.71;56.50
76201;BME280;64981;52.930;9.266;2024-03-25T10:15:31;100369.88;;;10.81;54.09
76201;BME280;64981;52.930;9.266;2024-03-25T10:17:57;100367.59;;;10.78;55.20
76201;BME280;64981;52.930;9.266;2024-03-25T10:20:23;100377.75;;;10.97;54.18
76201;BME280;64981;52.930;9.266;2024-03-25T10:22:49;100376.13;;;10.96;53.17
76201;BME280;64981;52.930;9.266;2024-03-25T10:25:27;100373.59;;;11.25;53.19
76201;BME280;64981;52.930;9.266;2024-03-25T10:27:56;100378.09;;;11.48;52.14
76201;BME280;64981;52.930;9.266;2024-03-25T10:30:22;100378.63;;;11.43;52.46
76201;BME280;64981;52.930;9.266;2024-03-25T10:33:02;100375.91;;;11.59;51.55
76201;BME280;64981;52.930;9.266;2024-03-25T10:35:30;100367.25;;;11.65;51.06
76201;BME280;64981;52.930;9.266;2024-03-25T10:37:59;100363.69;;;11.73;49.52
76201;BME280;64981;52.930;9.266;2024-03-25T10:40:28;100364.09;;;11.84;47.96
76201;BME280;64981;52.930;9.266;2024-03-25T10:43:04;100369.81;;;11.73;49.69
76201;BME280;64981;52.930;9.266;2024-03-25T10:45:34;100376.19;;;11.56;47.56
76201;BME280;64981;52.930;9.266;2024-03-25T10:48:05;100361.66;;;11.60;48.38
76201;BME280;64981;52.930;9.266;2024-03-25T10:50:37;100378.44;;;11.45;50.84
76201;BME280;64981;52.930;9.266;2024-03-25T10:53:05;100376.84;;;11.35;49.11
76201;BME280;64981;52.930;9.266;2024-03-25T10:55:34;100363.41;;;11.45;49.67
76201;BME280;64981;52.930;9.266;2024-03-25T10:58:04;100383.84;;;11.28;50.89
76201;BME280;64981;52.930;9.266;2024-03-25T11:00:31;100381.53;;;11.25;50.11
76201;BME280;64981;52.930;9.266;2024-03-25T11:02:58;100379.84;;;11.32;51.05
76201;BME280;64981;52.930;9.266;2024-03-25T11:05:25;100373.25;;;11.06;50.51
76201;BME280;64981;52.930;9.266;2024-03-25T11:07:51;100374.31;;;10.97;51.47
76201;BME280;64981;52.930;9.266;2024-03-25T11:10:17;100367.34;;;10.96;51.16
76201;BME280;64981;52.930;9.266;2024-03-25T11:12:42;100362.94;;;10.88;52.07
76201;BME280;64981;52.930;9.266;2024-03-25T11:15:09;100375.97;;;10.90;51.81
76201;BME280;64981;52.930;9.266;2024-03-25T11:17:36;100375.50;;;10.86;52.01
76201;BME280;64981;52.930;9.266;2024-03-25T11:20:18;100368.88;;;10.90;52.86
76201;BME280;64981;52.930;9.266;2024-03-25T11:22:49;100378.78;;;10.88;51.81
76201;BME280;64981;52.930;9.266;2024-03-25T11:25:16;100356.78;;;10.65;52.81
76201;BME280;64981;52.930;9.266;2024-03-25T11:27:44;100364.03;;;10.63;51.69
76201;BME280;64981;52.930;9.266;2024-03-25T11:30:14;100370.06;;;10.79;51.30
76201;BME280;64981;52.930;9.266;2024-03-25T11:32:52;100372.03;;;10.85;51.34
76201;BME280;64981;52.930;9.266;2024-03-25T11:35:18;100362.78;;;10.81;52.65
76201;BME280;64981;52.930;9.266;2024-03-25T11:37:44;100357.69;;;10.80;52.62
76201;BME280;64981;52.930;9.266;2024-03-25T11:40:13;100354.84;;;10.90;52.49
76201;BME280;64981;52.930;9.266;2024-03-25T11:42:41;100352.53;;;11.17;52.41
76201;BME280;64981;52.930;9.266;2024-03-25T11:45:07;100346.94;;;11.35;51.62
76201;BME280;64981;52.930;9.266;2024-03-25T11:47:40;100348.94;;;11.56;50.25
76201;BME280;64981;52.930;9.266;2024-03-25T11:50:08;100338.59;;;11.69;49.40
76201;BME280;64981;52.930;9.266;2024-03-25T11:52:34;100344.00;;;11.75;49.28
76201;BME280;64981;52.930;9.266;2024-03-25T11:54:59;100343.34;;;11.73;50.66
76201;BME280;64981;52.930;9.266;2024-03-25T11:57:28;100335.25;;;11.75;48.72
76201;BME280;64981;52.930;9.266;2024-03-25T11:59:54;100332.69;;;11.81;48.54
76201;BME280;64981;52.930;9.266;2024-03-25T12:02:19;100323.59;;;12.13;48.92
76201;BME280;64981;52.930;9.266;2024-03-25T12:04:45;100328.91;;;12.28;49.78
76201;BME280;64981;52.930;9.266;2024-03-25T12:07:13;100325.69;;;12.62;46.83
76201;BME280;64981;52.930;9.266;2024-03-25T12:09:39;100329.03;;;12.85;45.50
76201;BME280;64981;52.930;9.266;2024-03-25T12:12:15;100327.91;;;12.79;45.27
76201;BME280;64981;52.930;9.266;2024-03-25T12:14:40;100323.56;;;13.08;44.45
76201;BME280;64981;52.930;9.266;2024-03-25T12:17:06;100330.56;;;12.94;44.34
76201;BME280;64981;52.930;9.266;2024-03-25T12:19:31;100326.06;;;13.09;45.66
76201;BME280;64981;52.930;9.266;2024-03-25T12:21:59;100321.72;;;12.87;45.72
76201;BME280;64981;52.930;9.266;2024-03-25T12:24:26;100316.13;;;12.96;46.38
76201;BME280;64981;52.930;9.266;2024-03-25T12:26:52;100321.91;;;12.71;46.99
76201;BME280;64981;52.930;9.266;2024-03-25T12:29:18;100320.91;;;12.72;46.21
76201;BME280;64981;52.930;9.266;2024-03-25T12:31:53;100311.41;;;12.63;47.03
76201;BME280;64981;52.930;9.266;2024-03-25T12:34:19;100312.53;;;12.54;46.87
76201;BME280;64981;52.930;9.266;2024-03-25T12:36:45;100311.34;;;12.41;47.58
76201;BME280;64981;52.930;9.266;2024-03-25T12:39:16;100306.72;;;12.43;45.99
76201;BME280;64981;52.930;9.266;2024-03-25T12:41:41;100312.53;;;12.54;45.78
76201;BME280;64981;52.930;9.266;2024-03-25T12:44:07;100305.59;;;12.53;45.76
76201;BME280;64981;52.930;9.266;2024-03-25T12:46:33;100297.75;;;12.44;45.55
76201;BME280;64981;52.930;9.266;2024-03-25T12:48:58;100287.59;;;12.48;44.85
76201;BME280;64981;52.930;9.266;2024-03-25T12:51:24;100295.97;;;12.66;45.28
76201;BME280;64981;52.930;9.266;2024-03-25T12:53:50;100292.81;;;12.56;45.65